sensor_id;sensor_type;location;lat;lon;timestamp;P1;durP1;ratioP1;P2;durP2;ratioP2
26201;SDS011;13944;28.562;77.188;2022-12-24T00:01:35;327.73;;;205.07;;
26201;SDS011;13944;28.562;77.188;2022-12-24T00:04:01;341.13;;;211.40;;
26201;SDS011;13944;28.562;77.188;2022-12-24T00:06:31;316.50;;;201.60;;
26201;SDS011;13944;28.562;77.188;2022-12-24T00:08:58;317.67;;;200.80;;
26201;SDS011;13944;28.562;77.188;2022-12-24T00:11:24;326.10;;;201.60;;
26201;SDS011;13944;28.562;77.188;2022-12-24T00:13:51;320.90;;;195.93;;
26201;SDS011;13944;28.562;77.188;2022-12-24T00:16:18;318.20;;;200.93;;
26201;SDS011;13944;28.562;77.188;2022-12-24T00:18:44;313.10;;;196.47;;
26201;SDS011;13944;28.562;77.188;2022-12-24T00:21:11;316.27;;;193.50;;
26201;SDS011;13944;28.562;77.188;2022-12-24T00:23:38;315.00;;;198.00;;
26201;SDS011;13944;28.562;77.188;2022-12-24T00:26:05;313.80;;;194.80;;
26201;SDS011;13944;28.562;77.188;2022-12-24T00:28:32;311.27;;;195.33;;
26201;SDS011;13944;28.562;77.188;2022-12-24T00:30:59;314.27;;;192.57;;
26201;SDS011;13944;28.562;77.188;2022-12-24T00:33:25;318.80;;;200.50;;
26201;SDS011;13944;28.562;77.188;2022-12-24T00:35:52;317.33;;;195.17;;
26201;SDS011;13944;28.562;77.188;2022-12-24T00:38:18;316.00;;;193.17;;
26201;SDS011;13944;28.562;77.188;2022-12-24T00:40:45;318.23;;;202.00;;
26201;SDS011;13944;28.562;77.188;2022-12-24T00:43:12;314.87;;;199.53;;
26201;SDS011;13944;28.562;77.188;2022-12-24T00:45:38;322.77;;;202.67;;
26201;SDS011;13944;28.562;77.188;2022-12-24T00:48:05;326.57;;;203.13;;
26201;SDS011;13944;28.562;77.188;2022-12-24T00:50:32;324.80;;;203.33;;
26201;SDS011;13944;28.562;77.188;2022-12-24T00:52:59;328.57;;;205.83;;
26201;SDS011;13944;28.562;77.188;2022-12-24T00:55:25;319.80;;;196.27;;
26201;SDS011;13944;28.562;77.188;2022-12-24T00:57:52;315.83;;;194.03;;
26201;SDS011;13944;28.562;77.188;2022-12-24T01:00:19;319.43;;;203.00;;
26201;SDS011;13944;28.562;77.188;2022-12-24T01:02:45;314.57;;;197.70;;
26201;SDS011;13944;28.562;77.188;2022-12-24T01:05:12;318.30;;;198.57;;
26201;SDS011;13944;28.562;77.188;2022-12-24T01:07:42;326.23;;;202.27;;
26201;SDS011;13944;28.562;77.188;2022-12-24T01:10:10;320.10;;;200.20;;
26201;SDS011;13944;28.562;77.188;2022-12-24T01:12:37;322.53;;;196.13;;
26201;SDS011;13944;28.562;77.188;2022-12-24T01:15:04;321.83;;;198.43;;
26201;SDS011;13944;28.562;77.188;2022-12-24T01:17:31;313.40;;;196.50;;
26201;SDS011;13944;28.562;77.188;2022-12-24T01:19:58;319.77;;;194.60;;
26201;SDS011;13944;28.562;77.188;2022-12-24T01:22:25;319.77;;;196.40;;
26201;SDS011;13944;28.562;77.188;2022-12-24T01:24:51;317.47;;;193.97;;
26201;SDS011;13944;28.562;77.188;2022-12-24T01:27:18;322.50;;;198.70;;
26201;SDS011;13944;28.562;77.188;2022-12-24T01:29:45;314.03;;;198.17;;
26201;SDS011;13944;28.562;77.188;2022-12-24T01:32:11;317.90;;;195.70;;
26201;SDS011;13944;28.562;77.188;2022-12-24T01:34:38;300.53;;;189.37;;
26201;SDS011;13944;28.562;77.188;2022-12-24T01:37:04;311.27;;;186.43;;
26201;SDS011;13944;28.562;77.188;2022-12-24T01:39:31;297.87;;;180.57;;
26201;SDS011;13944;28.562;77.188;2022-12-24T01:41:57;292.07;;;177.13;;
26201;SDS011;13944;28.562;77.188;2022-12-24T01:44:46;293.90;;;173.67;;
26201;SDS011;13944;28.562;77.188;2022-12-24T01:49:44;289.17;;;169.73;;
26201;SDS011;13944;28.562;77.188;2022-12-24T01:52:13;289.10;;;171.00;;
26201;SDS011;13944;28.562;77.188;2022-12-24T01:54:52;286.57;;;167.73;;
26201;SDS011;13944;28.562;77.188;2022-12-24T01:57:42;277.57;;;166.83;;
26201;SDS011;13944;28.562;77.188;2022-12-24T02:00:07;275.40;;;169.50;;
26201;SDS011;13944;28.562;77.188;2022-12-24T02:02:35;289.17;;;174.53;;
26201;SDS011;13944;28.562;77.188;2022-12-24T02:05:04;283.00;;;169.33;;
26201;SDS011;13944;28.562;77.188;2022-12-24T02:07:32;271.73;;;165.93;;
26201;SDS011;13944;28.562;77.188;2022-12-24T02:09:59;273.47;;;164.80;;
26201;SDS011;13944;28.562;77.188;2022-12-24T02:12:26;263.83;;;158.67;;
26201;SDS011;13944;28.562;77.188;2022-12-24T02:14:53;262.87;;;155.27;;
26201;SDS011;13944;28.562;77.188;2022-12-24T02:19:52;269.93;;;155.23;;
26201;SDS011;13944;28.562;77.188;2022-12-24T02:22:44;251.90;;;153.93;;
26201;SDS011;13944;28.562;77.188;2022-12-24T02:25:18;254.73;;;153.80;;
26201;SDS011;13944;28.562;77.188;2022-12-24T02:27:59;259.57;;;156.40;;
26201;SDS011;13944;28.562;77.188;2022-12-24T02:30:29;261.53;;;159.17;;
26201;SDS011;13944;28.562;77.188;2022-12-24T02:33:06;271.53;;;159.40;;
26201;SDS011;13944;28.562;77.188;2022-12-24T02:40:53;263.07;;;158.77;;
26201;SDS011;13944;28.562;77.188;2022-12-24T02:43:22;263.00;;;157.97;;
26201;SDS011;13944;28.562;77.188;2022-12-24T02:45:57;261.03;;;158.83;;
26201;SDS011;13944;28.562;77.188;2022-12-24T02:48:23;257.63;;;159.03;;
26201;SDS011;13944;28.562;77.188;2022-12-24T02:51:02;259.13;;;157.43;;
26201;SDS011;13944;28.562;77.188;2022-12-24T02:53:29;259.97;;;160.83;;
26201;SDS011;13944;28.562;77.188;2022-12-24T03:07:12;260.70;;;158.27;;
26201;SDS011;13944;28.562;77.188;2022-12-24T03:10:26;259.90;;;155.73;;
26201;SDS011;13944;28.562;77.188;2022-12-24T03:12:29;251.43;;;150.67;;
26201;SDS011;13944;28.562;77.188;2022-12-24T03:14:57;246.40;;;151.93;;
26201;SDS011;13944;28.562;77.188;2022-12-24T03:17:25;262.65;;;165.55;;
26201;SDS011;13944;28.562;77.188;2022-12-24T03:19:52;256.57;;;157.07;;
26201;SDS011;13944;28.562;77.188;2022-12-24T03:22:20;254.60;;;156.70;;
26201;SDS011;13944;28.562;77.188;2022-12-24T03:24:47;255.30;;;154.57;;
26201;SDS011;13944;28.562;77.188;2022-12-24T03:27:14;255.67;;;152.67;;
26201;SDS011;13944;28.562;77.188;2022-12-24T03:29:41;246.07;;;152.23;;
26201;SDS011;13944;28.562;77.188;2022-12-24T03:32:08;241.50;;;146.30;;
26201;SDS011;13944;28.562;77.188;2022-12-24T03:34:34;251.73;;;151.33;;
26201;SDS011;13944;28.562;77.188;2022-12-24T03:37:01;247.00;;;142.73;;
26201;SDS011;13944;28.562;77.188;2022-12-24T03:39:28;241.67;;;143.87;;
26201;SDS011;13944;28.562;77.188;2022-12-24T03:41:54;275.73;;;146.60;;
26201;SDS011;13944;28.562;77.188;2022-12-24T03:44:21;294.27;;;150.87;;
26201;SDS011;13944;28.562;77.188;2022-12-24T03:46:47;253.93;;;147.87;;
26201;SDS011;13944;28.562;77.188;2022-12-24T03:49:14;257.30;;;152.63;;
26201;SDS011;13944;28.562;77.188;2022-12-24T03:51:40;258.30;;;151.40;;
26201;SDS011;13944;28.562;77.188;2022-12-24T03:54:07;253.07;;;153.23;;
26201;SDS011;13944;28.562;77.188;2022-12-24T03:56:33;241.47;;;147.67;;
26201;SDS011;13944;28.562;77.188;2022-12-24T03:59:00;263.30;;;153.00;;
26201;SDS011;13944;28.562;77.188;2022-12-24T04:01:27;251.93;;;152.30;;
26201;SDS011;13944;28.562;77.188;2022-12-24T04:03:53;248.33;;;153.33;;
26201;SDS011;13944;28.562;77.188;2022-12-24T04:06:20;271.33;;;153.10;;
26201;SDS011;13944;28.562;77.188;2022-12-24T04:08:47;257.80;;;152.50;;
26201;SDS011;13944;28.562;77.188;2022-12-24T04:11:14;247.43;;;154.90;;
26201;SDS011;13944;28.562;77.188;2022-12-24T04:13:41;260.73;;;153.90;;
26201;SDS011;13944;28.562;77.188;2022-12-24T04:16:08;253.30;;;150.63;;
26201;SDS011;13944;28.562;77.188;2022-12-24T04:18:36;253.23;;;152.27;;
26201;SDS011;13944;28.562;77.188;2022-12-24T04:21:03;255.70;;;149.23;;
26201;SDS011;13944;28.562;77.188;2022-12-24T04:23:30;245.30;;;150.73;;
26201;SDS011;13944;28.562;77.188;2022-12-24T04:26:00;276.57;;;157.73;;
26201;SDS011;13944;28.562;77.188;2022-12-24T04:28:27;257.43;;;151.80;;
26201;SDS011;13944;28.562;77.188;2022-12-24T04:31:01;248.43;;;152.23;;
26201;SDS011;13944;28.562;77.188;2022-12-24T04:33:28;251.40;;;150.03;;
26201;SDS011;13944;28.562;77.188;2022-12-24T04:35:58;256.07;;;154.73;;
26201;SDS011;13944;28.562;77.188;2022-12-24T04:38:25;255.73;;;154.13;;
26201;SDS011;13944;28.562;77.188;2022-12-24T04:41:08;264.37;;;157.23;;
26201;SDS011;13944;28.562;77.188;2022-12-24T04:43:36;245.67;;;151.47;;
26201;SDS011;13944;28.562;77.188;2022-12-24T04:46:06;248.60;;;148.63;;
26201;SDS011;13944;28.562;77.188;2022-12-24T04:48:34;236.37;;;144.80;;
26201;SDS011;13944;28.562;77.188;2022-12-24T04:51:01;246.77;;;146.97;;
26201;SDS011;13944;28.562;77.188;2022-12-24T04:53:28;243.03;;;147.50;;
26201;SDS011;13944;28.562;77.188;2022-12-24T04:55:55;242.17;;;145.90;;
26201;SDS011;13944;28.562;77.188;2022-12-24T04:58:22;241.23;;;142.77;;
26201;SDS011;13944;28.562;77.188;2022-12-24T05:00:48;231.03;;;141.97;;
26201;SDS011;13944;28.562;77.188;2022-12-24T05:03:15;225.80;;;139.87;;
26201;SDS011;13944;28.562;77.188;2022-12-24T05:05:42;226.87;;;138.70;;
26201;SDS011;13944;28.562;77.188;2022-12-24T05:08:08;224.97;;;140.57;;
26201;SDS011;13944;28.562;77.188;2022-12-24T05:10:35;232.70;;;136.90;;
26201;SDS011;13944;28.562;77.188;2022-12-24T05:13:01;204.47;;;134.53;;
26201;SDS011;13944;28.562;77.188;2022-12-24T05:15:28;219.50;;;134.50;;
26201;SDS011;13944;28.562;77.188;2022-12-24T05:17:54;217.47;;;134.07;;
26201;SDS011;13944;28.562;77.188;2022-12-24T05:20:22;221.13;;;136.67;;
26201;SDS011;13944;28.562;77.188;2022-12-24T05:22:49;205.63;;;134.73;;
26201;SDS011;13944;28.562;77.188;2022-12-24T05:25:35;214.13;;;132.13;;
26201;SDS011;13944;28.562;77.188;2022-12-24T05:28:21;218.13;;;131.93;;
26201;SDS011;13944;28.562;77.188;2022-12-24T05:30:48;218.90;;;134.67;;
26201;SDS011;13944;28.562;77.188;2022-12-24T05:33:15;214.40;;;132.47;;
26201;SDS011;13944;28.562;77.188;2022-12-24T05:35:42;207.60;;;129.17;;
26201;SDS011;13944;28.562;77.188;2022-12-24T05:38:08;208.53;;;130.40;;
26201;SDS011;13944;28.562;77.188;2022-12-24T05:40:35;212.83;;;130.67;;
26201;SDS011;13944;28.562;77.188;2022-12-24T05:43:01;202.37;;;130.03;;
26201;SDS011;13944;28.562;77.188;2022-12-24T05:45:28;206.40;;;128.50;;
26201;SDS011;13944;28.562;77.188;2022-12-24T05:47:54;201.47;;;127.73;;
26201;SDS011;13944;28.562;77.188;2022-12-24T05:50:21;202.47;;;127.57;;
26201;SDS011;13944;28.562;77.188;2022-12-24T05:52:47;205.23;;;125.77;;
26201;SDS011;13944;28.562;77.188;2022-12-24T05:55:14;196.00;;;125.23;;
26201;SDS011;13944;28.562;77.188;2022-12-24T05:57:40;193.43;;;123.60;;
26201;SDS011;13944;28.562;77.188;2022-12-24T06:00:07;194.60;;;123.97;;
26201;SDS011;13944;28.562;77.188;2022-12-24T06:02:34;207.20;;;130.30;;
26201;SDS011;13944;28.562;77.188;2022-12-24T06:05:01;214.27;;;132.87;;
26201;SDS011;13944;28.562;77.188;2022-12-24T06:07:27;204.73;;;132.73;;
26201;SDS011;13944;28.562;77.188;2022-12-24T06:09:54;206.60;;;130.40;;
26201;SDS011;13944;28.562;77.188;2022-12-24T06:12:21;213.33;;;134.07;;
26201;SDS011;13944;28.562;77.188;2022-12-24T06:14:47;200.90;;;131.63;;
26201;SDS011;13944;28.562;77.188;2022-12-24T06:17:14;204.83;;;132.90;;
26201;SDS011;13944;28.562;77.188;2022-12-24T06:19:40;208.57;;;134.17;;
26201;SDS011;13944;28.562;77.188;2022-12-24T06:22:07;210.00;;;136.13;;
26201;SDS011;13944;28.562;77.188;2022-12-24T06:24:33;204.13;;;131.50;;
26201;SDS011;13944;28.562;77.188;2022-12-24T06:27:00;215.47;;;133.47;;
26201;SDS011;13944;28.562;77.188;2022-12-24T06:29:27;192.07;;;128.30;;
26201;SDS011;13944;28.562;77.188;2022-12-24T06:31:53;200.53;;;128.83;;
26201;SDS011;13944;28.562;77.188;2022-12-24T06:34:20;186.80;;;123.53;;
26201;SDS011;13944;28.562;77.188;2022-12-24T06:36:46;194.60;;;124.83;;
26201;SDS011;13944;28.562;77.188;2022-12-24T06:39:13;196.00;;;126.37;;
26201;SDS011;13944;28.562;77.188;2022-12-24T06:41:39;200.20;;;125.47;;
26201;SDS011;13944;28.562;77.188;2022-12-24T06:44:07;187.83;;;123.30;;
26201;SDS011;13944;28.562;77.188;2022-12-24T06:46:34;201.70;;;124.23;;
26201;SDS011;13944;28.562;77.188;2022-12-24T06:49:00;190.97;;;126.63;;
26201;SDS011;13944;28.562;77.188;2022-12-24T06:51:27;181.73;;;123.53;;
26201;SDS011;13944;28.562;77.188;2022-12-24T06:53:53;194.33;;;128.23;;
26201;SDS011;13944;28.562;77.188;2022-12-24T06:56:20;202.47;;;126.60;;
26201;SDS011;13944;28.562;77.188;2022-12-24T06:58:47;196.63;;;125.40;;
26201;SDS011;13944;28.562;77.188;2022-12-24T07:01:16;177.87;;;121.00;;
26201;SDS011;13944;28.562;77.188;2022-12-24T07:03:43;175.90;;;120.40;;
26201;SDS011;13944;28.562;77.188;2022-12-24T07:06:28;185.97;;;122.00;;
26201;SDS011;13944;28.562;77.188;2022-12-24T07:08:55;190.37;;;124.70;;
26201;SDS011;13944;28.562;77.188;2022-12-24T07:11:22;180.90;;;119.47;;
26201;SDS011;13944;28.562;77.188;2022-12-24T07:13:50;184.57;;;123.27;;
26201;SDS011;13944;28.562;77.188;2022-12-24T07:16:16;182.50;;;120.07;;
26201;SDS011;13944;28.562;77.188;2022-12-24T07:18:43;191.43;;;119.43;;
26201;SDS011;13944;28.562;77.188;2022-12-24T07:21:09;173.37;;;116.80;;
26201;SDS011;13944;28.562;77.188;2022-12-24T07:23:36;160.73;;;109.00;;
26201;SDS011;13944;28.562;77.188;2022-12-24T07:26:03;159.80;;;106.00;;
26201;SDS011;13944;28.562;77.188;2022-12-24T07:28:30;159.87;;;111.07;;
26201;SDS011;13944;28.562;77.188;2022-12-24T07:30:56;165.07;;;102.63;;
26201;SDS011;13944;28.562;77.188;2022-12-24T07:33:24;162.40;;;110.40;;
26201;SDS011;13944;28.562;77.188;2022-12-24T07:35:58;166.73;;;112.57;;
26201;SDS011;13944;28.562;77.188;2022-12-24T07:38:25;176.73;;;117.87;;
26201;SDS011;13944;28.562;77.188;2022-12-24T07:40:52;188.83;;;123.87;;
26201;SDS011;13944;28.562;77.188;2022-12-24T07:43:18;205.03;;;124.83;;
26201;SDS011;13944;28.562;77.188;2022-12-24T07:45:45;181.93;;;119.37;;
26201;SDS011;13944;28.562;77.188;2022-12-24T07:48:11;185.50;;;121.73;;
26201;SDS011;13944;28.562;77.188;2022-12-24T07:50:38;182.40;;;117.50;;
26201;SDS011;13944;28.562;77.188;2022-12-24T07:53:04;193.37;;;124.50;;
26201;SDS011;13944;28.562;77.188;2022-12-24T07:55:31;183.70;;;123.00;;
26201;SDS011;13944;28.562;77.188;2022-12-24T07:57:57;181.63;;;118.17;;
26201;SDS011;13944;28.562;77.188;2022-12-24T08:00:24;175.80;;;117.97;;
26201;SDS011;13944;28.562;77.188;2022-12-24T08:02:53;175.40;;;113.27;;
26201;SDS011;13944;28.562;77.188;2022-12-24T08:05:20;162.50;;;106.83;;
26201;SDS011;13944;28.562;77.188;2022-12-24T08:07:47;145.63;;;95.73;;
26201;SDS011;13944;28.562;77.188;2022-12-24T08:10:14;154.23;;;99.87;;
26201;SDS011;13944;28.562;77.188;2022-12-24T08:12:40;154.77;;;100.37;;
26201;SDS011;13944;28.562;77.188;2022-12-24T08:15:07;164.93;;;106.23;;
26201;SDS011;13944;28.562;77.188;2022-12-24T08:17:33;164.87;;;104.77;;
26201;SDS011;13944;28.562;77.188;2022-12-24T08:20:00;152.30;;;100.23;;
26201;SDS011;13944;28.562;77.188;2022-12-24T08:22:27;164.27;;;107.83;;
26201;SDS011;13944;28.562;77.188;2022-12-24T08:24:53;158.97;;;103.30;;
26201;SDS011;13944;28.562;77.188;2022-12-24T08:27:20;164.40;;;103.70;;
26201;SDS011;13944;28.562;77.188;2022-12-24T08:29:46;163.73;;;106.43;;
26201;SDS011;13944;28.562;77.188;2022-12-24T08:32:13;156.33;;;102.73;;
26201;SDS011;13944;28.562;77.188;2022-12-24T08:34:39;156.27;;;103.13;;
26201;SDS011;13944;28.562;77.188;2022-12-24T08:37:06;145.87;;;98.50;;
26201;SDS011;13944;28.562;77.188;2022-12-24T08:39:32;139.57;;;94.20;;
26201;SDS011;13944;28.562;77.188;2022-12-24T08:41:59;143.90;;;94.20;;
26201;SDS011;13944;28.562;77.188;2022-12-24T08:44:25;145.47;;;95.40;;
26201;SDS011;13944;28.562;77.188;2022-12-24T08:46:52;128.83;;;83.93;;
26201;SDS011;13944;28.562;77.188;2022-12-24T08:49:19;123.93;;;82.93;;
26201;SDS011;13944;28.562;77.188;2022-12-24T08:51:45;124.23;;;79.80;;
26201;SDS011;13944;28.562;77.188;2022-12-24T08:54:13;120.30;;;78.33;;
26201;SDS011;13944;28.562;77.188;2022-12-24T08:56:39;118.93;;;74.50;;
26201;SDS011;13944;28.562;77.188;2022-12-24T08:59:07;116.30;;;72.03;;
26201;SDS011;13944;28.562;77.188;2022-12-24T09:01:34;118.20;;;72.47;;
26201;SDS011;13944;28.562;77.188;2022-12-24T09:04:01;120.27;;;74.23;;
26201;SDS011;13944;28.562;77.188;2022-12-24T09:06:27;114.73;;;72.60;;
26201;SDS011;13944;28.562;77.188;2022-12-24T09:08:54;113.43;;;71.70;;
26201;SDS011;13944;28.562;77.188;2022-12-24T09:11:20;111.53;;;72.83;;
26201;SDS011;13944;28.562;77.188;2022-12-24T09:13:47;121.57;;;71.47;;
26201;SDS011;13944;28.562;77.188;2022-12-24T09:16:14;108.33;;;68.17;;
26201;SDS011;13944;28.562;77.188;2022-12-24T09:18:41;105.27;;;66.53;;
26201;SDS011;13944;28.562;77.188;2022-12-24T09:21:11;88.93;;;57.60;;
26201;SDS011;13944;28.562;77.188;2022-12-24T09:23:42;84.37;;;53.43;;
26201;SDS011;13944;28.562;77.188;2022-12-24T09:26:12;87.27;;;56.03;;
26201;SDS011;13944;28.562;77.188;2022-12-24T09:28:39;88.80;;;54.17;;
26201;SDS011;13944;28.562;77.188;2022-12-24T09:31:06;81.23;;;52.20;;
26201;SDS011;13944;28.562;77.188;2022-12-24T09:33:35;87.37;;;52.93;;
26201;SDS011;13944;28.562;77.188;2022-12-24T09:36:02;84.83;;;52.40;;
26201;SDS011;13944;28.562;77.188;2022-12-24T09:38:28;85.07;;;53.17;;
26201;SDS011;13944;28.562;77.188;2022-12-24T09:40:55;85.03;;;53.33;;
26201;SDS011;13944;28.562;77.188;2022-12-24T09:43:26;80.33;;;52.10;;
26201;SDS011;13944;28.562;77.188;2022-12-24T09:46:16;84.70;;;52.83;;
26201;SDS011;13944;28.562;77.188;2022-12-24T09:48:41;81.23;;;51.13;;
26201;SDS011;13944;28.562;77.188;2022-12-24T09:54:09;85.60;;;54.50;;
26201;SDS011;13944;28.562;77.188;2022-12-24T09:56:39;86.90;;;53.27;;
26201;SDS011;13944;28.562;77.188;2022-12-24T09:59:09;86.73;;;53.27;;
26201;SDS011;13944;28.562;77.188;2022-12-24T10:01:36;83.27;;;52.20;;
26201;SDS011;13944;28.562;77.188;2022-12-24T10:04:09;82.67;;;51.43;;
26201;SDS011;13944;28.562;77.188;2022-12-24T10:07:01;81.50;;;52.33;;
26201;SDS011;13944;28.562;77.188;2022-12-24T10:09:34;86.90;;;54.30;;
26201;SDS011;13944;28.562;77.188;2022-12-24T10:22:23;81.10;;;54.07;;
26201;SDS011;13944;28.562;77.188;2022-12-24T10:27:23;89.27;;;54.03;;
26201;SDS011;13944;28.562;77.188;2022-12-24T10:30:05;82.73;;;53.77;;
26201;SDS011;13944;28.562;77.188;2022-12-24T10:32:33;84.27;;;53.67;;
26201;SDS011;13944;28.562;77.188;2022-12-24T10:37:39;91.20;;;57.37;;
26201;SDS011;13944;28.562;77.188;2022-12-24T10:40:10;85.97;;;56.07;;
26201;SDS011;13944;28.562;77.188;2022-12-24T10:42:39;81.83;;;54.43;;
26201;SDS011;13944;28.562;77.188;2022-12-24T10:45:13;92.47;;;56.37;;
26201;SDS011;13944;28.562;77.188;2022-12-24T10:47:41;94.67;;;57.37;;
26201;SDS011;13944;28.562;77.188;2022-12-24T10:50:14;90.90;;;56.33;;
26201;SDS011;13944;28.562;77.188;2022-12-24T10:52:43;89.97;;;58.03;;
26201;SDS011;13944;28.562;77.188;2022-12-24T10:55:32;96.70;;;58.63;;
26201;SDS011;13944;28.562;77.188;2022-12-24T10:58:04;101.03;;;61.83;;
26201;SDS011;13944;28.562;77.188;2022-12-24T11:00:31;101.23;;;61.23;;
26201;SDS011;13944;28.562;77.188;2022-12-24T11:05:37;98.23;;;62.87;;
26201;SDS011;13944;28.562;77.188;2022-12-24T11:08:17;103.57;;;64.70;;
26201;SDS011;13944;28.562;77.188;2022-12-24T11:10:57;100.27;;;65.23;;
26201;SDS011;13944;28.562;77.188;2022-12-24T11:13:25;108.53;;;65.53;;
26201;SDS011;13944;28.562;77.188;2022-12-24T11:16:00;105.07;;;67.40;;
26201;SDS011;13944;28.562;77.188;2022-12-24T11:18:27;108.97;;;69.23;;
26201;SDS011;13944;28.562;77.188;2022-12-24T11:20:54;118.87;;;71.80;;
26201;SDS011;13944;28.562;77.188;2022-12-24T11:23:23;114.10;;;68.43;;
26201;SDS011;13944;28.562;77.188;2022-12-24T11:25:50;114.13;;;70.57;;
26201;SDS011;13944;28.562;77.188;2022-12-24T11:28:23;116.30;;;71.30;;
26201;SDS011;13944;28.562;77.188;2022-12-24T11:31:03;113.40;;;70.23;;
26201;SDS011;13944;28.562;77.188;2022-12-24T11:33:31;117.93;;;71.17;;
26201;SDS011;13944;28.562;77.188;2022-12-24T11:36:02;109.80;;;70.73;;
26201;SDS011;13944;28.562;77.188;2022-12-24T11:38:29;126.70;;;73.40;;
26201;SDS011;13944;28.562;77.188;2022-12-24T11:41:10;118.67;;;75.27;;
26201;SDS011;13944;28.562;77.188;2022-12-24T11:43:41;130.80;;;77.27;;
26201;SDS011;13944;28.562;77.188;2022-12-24T11:51:37;127.43;;;80.33;;
26201;SDS011;13944;28.562;77.188;2022-12-24T11:54:08;135.13;;;83.27;;
26201;SDS011;13944;28.562;77.188;2022-12-24T11:56:42;129.67;;;80.53;;
26201;SDS011;13944;28.562;77.188;2022-12-24T11:59:52;145.47;;;83.97;;
26201;SDS011;13944;28.562;77.188;2022-12-24T12:04:30;134.30;;;83.87;;
26201;SDS011;13944;28.562;77.188;2022-12-24T12:09:55;133.80;;;87.20;;
26201;SDS011;13944;28.562;77.188;2022-12-24T12:12:29;133.67;;;87.30;;
26201;SDS011;13944;28.562;77.188;2022-12-24T12:14:58;140.83;;;86.93;;
26201;SDS011;13944;28.562;77.188;2022-12-24T12:22:55;153.07;;;94.90;;
26201;SDS011;13944;28.562;77.188;2022-12-24T12:25:34;166.43;;;100.60;;
26201;SDS011;13944;28.562;77.188;2022-12-24T12:28:05;171.23;;;101.70;;
26201;SDS011;13944;28.562;77.188;2022-12-24T12:30:32;151.63;;;97.13;;
26201;SDS011;13944;28.562;77.188;2022-12-24T12:33:17;151.20;;;97.47;;
26201;SDS011;13944;28.562;77.188;2022-12-24T12:35:45;152.60;;;96.40;;
26201;SDS011;13944;28.562;77.188;2022-12-24T12:38:15;154.83;;;97.07;;
26201;SDS011;13944;28.562;77.188;2022-12-24T12:43:15;154.70;;;98.60;;
26201;SDS011;13944;28.562;77.188;2022-12-24T12:45:53;159.17;;;100.83;;
26201;SDS011;13944;28.562;77.188;2022-12-24T12:51:01;160.20;;;105.17;;
26201;SDS011;13944;28.562;77.188;2022-12-24T12:58:43;164.27;;;104.97;;
26201;SDS011;13944;28.562;77.188;2022-12-24T13:01:13;165.03;;;105.70;;
26201;SDS011;13944;28.562;77.188;2022-12-24T13:08:53;169.70;;;104.07;;
26201;SDS011;13944;28.562;77.188;2022-12-24T13:11:30;165.53;;;107.50;;
26201;SDS011;13944;28.562;77.188;2022-12-24T13:19:20;184.63;;;111.17;;
26201;SDS011;13944;28.562;77.188;2022-12-24T13:21:48;182.53;;;115.63;;
26201;SDS011;13944;28.562;77.188;2022-12-24T13:27:00;188.47;;;118.30;;
26201;SDS011;13944;28.562;77.188;2022-12-24T13:35:00;191.03;;;119.40;;
26201;SDS011;13944;28.562;77.188;2022-12-24T13:42:45;204.13;;;124.53;;
26201;SDS011;13944;28.562;77.188;2022-12-24T13:47:55;211.60;;;130.70;;
26201;SDS011;13944;28.562;77.188;2022-12-24T13:50:22;219.43;;;133.20;;
26201;SDS011;13944;28.562;77.188;2022-12-24T13:52:50;212.30;;;136.27;;
26201;SDS011;13944;28.562;77.188;2022-12-24T13:55:18;230.00;;;140.50;;
26201;SDS011;13944;28.562;77.188;2022-12-24T13:57:50;218.23;;;140.50;;
26201;SDS011;13944;28.562;77.188;2022-12-24T14:02:55;241.13;;;148.77;;
26201;SDS011;13944;28.562;77.188;2022-12-24T14:07:53;240.03;;;150.13;;
26201;SDS011;13944;28.562;77.188;2022-12-24T14:10:24;228.40;;;147.53;;
26201;SDS011;13944;28.562;77.188;2022-12-24T14:12:52;233.67;;;150.00;;
26201;SDS011;13944;28.562;77.188;2022-12-24T14:18:04;226.27;;;145.50;;
26201;SDS011;13944;28.562;77.188;2022-12-24T14:20:31;246.73;;;155.13;;
26201;SDS011;13944;28.562;77.188;2022-12-24T14:23:01;245.00;;;154.43;;
26201;SDS011;13944;28.562;77.188;2022-12-24T14:25:30;245.20;;;156.23;;
26201;SDS011;13944;28.562;77.188;2022-12-24T14:28:06;244.70;;;153.17;;
26201;SDS011;13944;28.562;77.188;2022-12-24T14:30:39;239.67;;;150.17;;
26201;SDS011;13944;28.562;77.188;2022-12-24T14:33:25;236.13;;;147.87;;
26201;SDS011;13944;28.562;77.188;2022-12-24T14:35:52;225.93;;;141.10;;
26201;SDS011;13944;28.562;77.188;2022-12-24T14:38:18;235.60;;;147.33;;
26201;SDS011;13944;28.562;77.188;2022-12-24T14:40:53;237.67;;;145.63;;
26201;SDS011;13944;28.562;77.188;2022-12-24T14:43:23;235.20;;;144.90;;
26201;SDS011;13944;28.562;77.188;2022-12-24T14:46:11;230.50;;;147.30;;
26201;SDS011;13944;28.562;77.188;2022-12-24T14:48:56;240.40;;;149.03;;
26201;SDS011;13944;28.562;77.188;2022-12-24T14:56:20;250.20;;;152.30;;
26201;SDS011;13944;28.562;77.188;2022-12-24T14:58:50;239.57;;;150.17;;
26201;SDS011;13944;28.562;77.188;2022-12-24T15:03:43;276.10;;;163.70;;
26201;SDS011;13944;28.562;77.188;2022-12-24T15:06:10;270.43;;;161.10;;
26201;SDS011;13944;28.562;77.188;2022-12-24T15:08:44;274.37;;;162.17;;
26201;SDS011;13944;28.562;77.188;2022-12-24T15:11:15;247.73;;;153.93;;
26201;SDS011;13944;28.562;77.188;2022-12-24T15:13:44;262.63;;;156.90;;
26201;SDS011;13944;28.562;77.188;2022-12-24T15:16:17;264.07;;;161.17;;
26201;SDS011;13944;28.562;77.188;2022-12-24T15:18:48;258.87;;;152.73;;
26201;SDS011;13944;28.562;77.188;2022-12-24T15:21:16;259.30;;;153.23;;
26201;SDS011;13944;28.562;77.188;2022-12-24T15:23:46;263.80;;;159.03;;
26201;SDS011;13944;28.562;77.188;2022-12-24T15:26:15;254.00;;;150.73;;
26201;SDS011;13944;28.562;77.188;2022-12-24T15:28:42;245.23;;;147.20;;
26201;SDS011;13944;28.562;77.188;2022-12-24T15:31:13;273.67;;;156.93;;
26201;SDS011;13944;28.562;77.188;2022-12-24T15:33:42;260.47;;;157.70;;
26201;SDS011;13944;28.562;77.188;2022-12-24T15:36:10;256.00;;;154.27;;
26201;SDS011;13944;28.562;77.188;2022-12-24T15:38:38;265.23;;;155.17;;
26201;SDS011;13944;28.562;77.188;2022-12-24T15:41:26;263.67;;;155.10;;
26201;SDS011;13944;28.562;77.188;2022-12-24T15:43:52;282.67;;;167.67;;
26201;SDS011;13944;28.562;77.188;2022-12-24T15:46:23;289.47;;;171.43;;
26201;SDS011;13944;28.562;77.188;2022-12-24T15:48:51;288.73;;;169.43;;
26201;SDS011;13944;28.562;77.188;2022-12-24T15:51:29;286.50;;;178.63;;